• Join FlightAware (Why Join?)
  • Login
  • US Flag 
07:20AM EDT


 

Airport Tracker/Info


-or-


 

Live Flight TrackerFlight Track Log ✈ GJS3710 ✈ 03-May-2013 ✈ KORD - KALB

Flight Track Log - Related Links

Times and Time Zones

All times are in EDT time to prevent confusion due to time zone crossing. See the GJS3710 flight status page for this flight to view local times or setup timezone preferences in your user account.

Time Position Orientation Groundspeed Altitude Reporting Facility
EDT Latitude Longitude Course Direction KTS MPH feet Rate Location/Type
12:12AM 41.9833 -87.8000 86° East 201 231 3,300  Level Chicago TRACON
12:14AM 42.0086 -87.6128 80° East 261 300 8,600 2,460 Climbing Chicago Center
12:15AM 42.1964 -87.2609 66° East  Level FlightAware Approximate
12:15AM 42.0556 -87.5217 55° Northeast 294 338 11,300  Level Chicago Center
12:16AM 42.2404 -87.1289 66° East  Level FlightAware Approximate
12:16AM 42.1006 -87.4286 57° Northeast 295 339 13,800  Level Chicago Center
12:17AM 42.2671 -86.9916 86° East  Level FlightAware Approximate
12:17AM 42.1492 -87.3319 56° Northeast 309 356 16,100  Level Chicago Center
12:18AM 42.1975 -87.2308 57° Northeast 319 367 18,300 1,800 Climbing Chicago Center
12:19AM 42.2492 -87.1250 57° Northeast 334 384 19,800 1,200 Climbing Chicago Center
12:20AM 42.2811 -86.9956 72° East 368 423 20,800 1,080 Climbing Chicago Center
12:21AM 42.2875 -86.8228 87° East 384 442 22,000 960 Climbing Chicago Center
12:22AM 42.2928 -86.7014 87° East 400 460 22,800 960 Climbing Chicago Center
12:23AM 42.3006 -86.5131 87° East 416 479 24,000 1,080 Climbing Chicago Center
12:24AM 42.3064 -86.3542 87° East 424 488 25,000 900 Climbing Chicago Center
12:25AM 42.2856 -86.2206 102° East 425 489 25,900 900 Climbing Chicago Center
12:26AM 42.2817 -86.0575 92° East 436 502 26,900 1,020 Climbing Chicago Center
12:27AM 42.2858 -85.8747 88° East 438 504 28,000 1,020 Climbing Chicago Center
12:28AM 42.2892 -85.7114 88° East 439 505 29,000 960 Climbing Chicago Center
12:29AM 42.2925 -85.5472 88° East 440 506 30,000 960 Climbing Chicago Center
12:30AM 42.2956 -85.3831 89° East 440 506 31,000 1,080 Climbing Chicago Center
12:31AM 42.2997 -85.3311 84° East 440 506 31,400 1,080 Climbing Cleveland Center
12:32AM 42.3022 -85.1656 89° East 440 506 32,400 960 Climbing Cleveland Center
12:33AM 42.3064 -85.0058 88° East 435 501 33,400 960 Climbing Cleveland Center
12:33AM 42.3064 -84.8400 90° East 435 501 34,400 960 Climbing Cleveland Center
12:34AM 42.3100 -84.6803 88° East 427 491 35,400 900 Climbing Cleveland Center
12:35AM 42.3092 -84.5256 90° East 422 486 36,300 780 Climbing Cleveland Center
12:37AM 42.3125 -84.3686 88° East 417 480 37,000 300 Climbing Cleveland Center
12:37AM 42.3156 -84.2058 88° East 422 486 37,000  Level Cleveland Center
12:38AM 42.3331 -84.0439 82° East 427 491 37,000  Level Cleveland Center
12:39AM 42.3486 -83.8733 83° East 438 504 37,000  Level Cleveland Center
12:40AM 42.3656 -83.7083 82° East 444 511 37,000  Level Cleveland Center
12:41AM 42.3767 -83.5317 85° East 450 518 37,000  Level Cleveland Center
12:42AM 42.3933 -83.3611 82° East 455 524 37,000  Level Cleveland Center
12:43AM 42.4056 -83.1928 84° East 455 524 37,000  Level Cleveland Center
12:44AM 42.4175 -83.0272 84° East 455 524 37,000  Level Cleveland Center
12:45AM 42.4314 -82.8647 83° East 443 510 37,000  Level Cleveland Center
12:46AM 42.4428 -82.7019 85° East 438 504 37,000  Level Cleveland Center
12:47AM 42.4539 -82.5417 85° East 438 504 37,000  Level Cleveland Center
12:48AM 42.4650 -82.3789 85° East 433 498 37,000  Level Cleveland Center
12:49AM 42.4758 -82.2131 85° East 433 498 37,000  Level Cleveland Center
12:50AM 42.4883 -82.0417 84° East 445 512 37,000  Level Cleveland Center
12:51AM 42.5008 -81.8703 84° East 456 525 37,000  Level Cleveland Center
12:52AM 42.5131 -81.6986 84° East 461 531 37,000  Level Cleveland Center
12:53AM 42.5231 -81.5242 85° East 461 531 37,000  Level Cleveland Center
12:54AM 42.5347 -81.3467 85° East 461 531 37,000  Level Cleveland Center
12:55AM 42.5461 -81.1750 85° East 461 531 37,000  Level Cleveland Center
12:56AM 42.5575 -81.0003 85° East 468 539 37,000  Level Cleveland Center
12:57AM 42.5664 -80.8228 86° East 462 532 37,000  Level Cleveland Center
12:58AM 42.5769 -80.6394 85° East 469 540 37,000  Level Cleveland Center
12:59AM 42.5831 -80.4844 87° East 469 540 37,000  Level Cleveland Center
01:00AM 42.5953 -80.3039 85° East 480 552 37,000  Level Cleveland Center
01:01AM 42.6053 -80.1206 86° East 480 552 37,000  Level Cleveland Center
01:02AM 42.6147 -79.9286 86° East 475 547 37,000  Level Cleveland Center
01:03AM 42.6239 -79.7481 86° East 475 547 37,000  Level Cleveland Center
01:04AM 42.6331 -79.5728 86° East 475 547 37,000  Level Cleveland Center
01:05AM 42.6417 -79.4006 86° East 469 540 37,000  Level Cleveland Center
01:06AM 42.6483 -79.2311 87° East 458 527 37,000  Level Cleveland Center
01:07AM 42.6544 -79.0617 87° East 453 521 37,000  Level Cleveland Center
01:08AM 42.6606 -78.8919 87° East 448 516 37,000  Level Cleveland Center
01:09AM 42.6683 -78.7253 86° East 442 509 37,000  Level Cleveland Center
01:11AM 42.6739 -78.5583 87° East 442 509 37,000  Level Cleveland Center
01:11AM 42.6792 -78.3889 88° East 442 509 37,000  Level Cleveland Center
01:12AM 42.6861 -78.2219 87° East 442 509 37,000  Level Cleveland Center
01:14AM 42.6911 -78.0550 88° East 442 509 37,000 -420 Level Cleveland Center
01:14AM 42.6975 -77.8822 87° East 442 509 36,200 -1,020 Descending Cleveland Center
01:15AM 42.7006 -77.7467 88° East 442 509 35,000 -1,560 Descending Cleveland Center
01:16AM 42.7075 -77.5314 87° East 448 516 33,100 -1,560 Descending Cleveland Center
01:19AM 42.7139 -77.1883 88° East 456 525 30,100 -1,320 Descending Boston Center
01:20AM 42.7186 -77.0219 88° East 451 519 29,000 -600 Descending Boston Center
01:21AM 42.7231 -76.8553 88° East 440 506 29,000  Level Boston Center
01:22AM 42.7253 -76.6914 89° East 440 506 29,000  Level Boston Center
01:23AM 42.7292 -76.5278 88° East 440 506 29,000  Level Boston Center
01:24AM 42.7331 -76.3583 88° East 440 506 29,000  Level Boston Center
01:25AM 42.7344 -76.1917 89° East 440 506 29,000 -300 Level Boston Center
01:26AM 42.7397 -76.0278 87° East 440 506 28,500 -1,320 Descending Boston Center
01:27AM 42.7408 -75.8556 89° East 440 506 26,400 -2,040 Descending Boston Center
01:28AM 42.7414 -75.6969 90° East 435 501 24,500 -1,980 Descending Boston Center
01:29AM 42.7436 -75.5444 89° East 417 480 22,500 -2,040 Descending Boston Center
01:30AM 42.7453 -75.4061 89° East 390 449 20,500 -2,040 Descending Boston Center
01:31AM 42.7464 -75.2731 89° East 365 420 18,500 -1,800 Descending Boston Center
01:32AM 42.7478 -75.1403 89° East 353 406 16,900 -1,980 Descending Boston Center
01:32AM 42.7472 -75.0667 91° East 342 394 15,600 -2,040 Descending Boston Center
01:33AM 42.7486 -75.0158 88° East 341 392 14,900 -1,980 Descending Boston Center
01:33AM 42.7483 -74.9311 90° East 326 375 13,400 -2,040 Descending Boston Center
01:34AM 42.7492 -74.8944 88° East 329 379 12,900 -2,040 Descending Boston Center
01:34AM 42.7486 -74.8122 90° East 318 366 11,400 -1,800 Descending Boston Center
01:35AM 42.7497 -74.7586 88° East 324 373 11,100 -420 Descending Boston Center
01:35AM 42.7492 -74.6936 91° East 320 368 11,000 -120 Descending Boston Center
01:36AM 42.7481 -74.6369 92° East 324 373 11,000  Level Boston Center
01:36AM 42.7497 -74.5522 88° East 342 394 11,000  Level Boston Center
01:37AM 42.7483 -74.5069 92° East 331 381 11,000  Level Boston Center
01:37AM 42.7581 -74.4336 80° East 303 349 11,000 -720 Level Boston Center
01:38AM 42.7650 -74.3972 75° East 309 356 10,300 -2,400 Descending Boston Center
01:38AM 42.7744 -74.3325 79° East 266 306 8,600 -2,400 Descending Boston Center
01:39AM 42.7811 -74.2958 76° East 284 327 7,900 -1,920 Descending Boston Center
01:39AM 42.7947 -74.2369 72° East 266 306 6,700 -1,920 Descending Boston Center
01:40AM 42.7994 -74.2003 80° East 265 305 6,000 -1,980 Descending Boston Center
01:40AM 42.8108 -74.1439 75° East 254 292 4,700 -2,040 Descending Boston Center
01:41AM 42.8175 -74.1072 76° East 259 298 4,000 -1,680 Descending Boston Center
01:41AM 42.8308 -74.0511 72° East 256 295 3,000 -1,020 Descending Boston Center
01:42AM 42.8397 -74.0200 69° East 249 287 3,000  Level Boston Center
01:42AM 42.8486 -73.9750 75° East 199 229 3,000  Level Boston Center
01:43AM 42.8553 -73.9469 72° East 240 276 3,000  Level Boston Center
01:43AM 42.8703 -73.9019 66° East 196 226 3,000  Level Boston Center
01:44AM 42.8728 -73.8792 81° East 217 250 3,000  Level Boston Center
01:44AM 42.8775 -73.8228 83° East 206 237 3,000 -240 Level Boston Center
01:45AM 42.8672 -73.8139 148° Southeast 203 234 2,800 -1,140 Descending Boston Center
01:45AM 42.8361 -73.8106 176° South 143 165 1,900 -720 Descending Boston Center
01:46AM 42.8467 -73.7881 57° Northeast 128 147 2,100 660 Climbing Boston Center